createdAt,value
2022-10-24T00:01:19.110Z,68.10
2022-10-24T00:03:45.744Z,68.30
2022-10-24T00:06:12.893Z,68.10
2022-10-24T00:08:40.600Z,68.30
2022-10-24T00:11:23.165Z,68.30
2022-10-24T00:13:50.985Z,68.50
2022-10-24T00:16:18.245Z,68.40
2022-10-24T00:18:45.541Z,68.30
2022-10-24T00:21:12.539Z,68.40
2022-10-24T00:23:39.257Z,68.20
2022-10-24T00:26:07.638Z,68.20
2022-10-24T00:28:36.011Z,68.50
2022-10-24T00:31:04.039Z,68.30
2022-10-24T00:33:31.157Z,68.40
2022-10-24T00:35:57.757Z,68.30
2022-10-24T00:38:24.568Z,68.10
2022-10-24T00:40:51.168Z,68.20
2022-10-24T00:43:21.666Z,68.00
2022-10-24T00:45:59.143Z,68.20
2022-10-24T00:48:40.263Z,68.10
2022-10-24T00:51:28.647Z,68.00
2022-10-24T00:54:08.528Z,67.70
2022-10-24T00:56:39.217Z,68.00
2022-10-24T00:59:08.453Z,67.80
2022-10-24T01:01:35.882Z,67.90
2022-10-24T01:04:02.590Z,67.80
2022-10-24T01:06:55.291Z,67.80
2022-10-24T01:09:38.001Z,67.90
2022-10-24T01:12:31.399Z,67.90
2022-10-24T01:15:14.919Z,67.50
2022-10-24T01:18:02.773Z,67.80
2022-10-24T01:20:47.747Z,67.70
2022-10-24T01:23:47.675Z,67.70
2022-10-24T01:26:20.440Z,67.60
2022-10-24T01:29:24.631Z,67.60
2022-10-24T01:31:53.402Z,67.40
2022-10-24T01:34:44.556Z,67.60
2022-10-24T01:37:21.577Z,67.40
2022-10-24T01:39:53.134Z,67.60
2022-10-24T01:42:23.888Z,67.60
2022-10-24T01:44:54.324Z,67.50
2022-10-24T01:47:37.341Z,67.40
2022-10-24T01:50:08.872Z,67.30
2022-10-24T01:52:39.860Z,67.40
2022-10-24T01:55:07.179Z,67.30
2022-10-24T01:57:35.016Z,67.30
2022-10-24T02:00:04.212Z,67.10
2022-10-24T02:02:36.338Z,67.10
2022-10-24T02:05:11.028Z,67.20
2022-10-24T02:07:39.668Z,67.20
2022-10-24T02:10:19.309Z,66.00
2022-10-24T02:12:52.220Z,67.00
2022-10-24T02:15:26.428Z,67.20
2022-10-24T02:17:54.424Z,67.30
2022-10-24T02:20:28.409Z,67.10
2022-10-24T02:23:05.348Z,67.20
2022-10-24T02:25:36.371Z,67.10
2022-10-24T02:28:15.320Z,67.10
2022-10-24T02:30:48.531Z,67.10
2022-10-24T02:33:16.616Z,67.00
2022-10-24T02:35:45.870Z,66.90
2022-10-24T02:38:19.681Z,66.80
2022-10-24T02:40:48.603Z,66.90
2022-10-24T02:43:17.476Z,66.80
2022-10-24T02:45:45.023Z,66.90
2022-10-24T02:48:13.851Z,66.80
2022-10-24T02:50:42.033Z,66.70
2022-10-24T02:53:12.790Z,66.80
2022-10-24T02:55:39.399Z,66.80
2022-10-24T02:58:06.027Z,66.80
2022-10-24T03:00:33.091Z,66.70
2022-10-24T03:02:59.682Z,66.50
2022-10-24T03:05:26.244Z,66.70
2022-10-24T03:07:56.988Z,66.70
2022-10-24T03:10:23.616Z,66.80
2022-10-24T03:12:51.400Z,66.70
2022-10-24T03:15:18.155Z,66.70
2022-10-24T03:17:44.963Z,66.70
2022-10-24T03:20:11.875Z,66.60
2022-10-24T03:22:38.449Z,66.60
2022-10-24T03:25:06.254Z,66.60
2022-10-24T03:27:34.052Z,66.50
2022-10-24T03:30:07.663Z,66.40
2022-10-24T03:32:34.645Z,66.50
2022-10-24T03:35:01.749Z,66.40
2022-10-24T03:37:28.560Z,66.40
2022-10-24T03:39:55.205Z,66.40
2022-10-24T03:42:22.153Z,66.40
2022-10-24T03:44:48.756Z,66.40
2022-10-24T03:47:16.411Z,66.40
2022-10-24T03:49:42.998Z,66.50
2022-10-24T03:52:10.091Z,66.40
2022-10-24T03:54:36.825Z,66.50
2022-10-24T03:57:03.548Z,66.40
2022-10-24T03:59:30.447Z,66.60
2022-10-24T04:02:01.221Z,66.50
2022-10-24T04:04:27.912Z,66.60
2022-10-24T04:06:54.833Z,66.50
2022-10-24T04:09:22.094Z,66.60
2022-10-24T04:11:49.265Z,66.50
2022-10-24T04:14:15.875Z,66.50
2022-10-24T04:16:42.516Z,66.60
2022-10-24T04:19:10.531Z,66.60
2022-10-24T04:21:43.863Z,66.60
2022-10-24T04:24:11.533Z,66.70
2022-10-24T04:26:38.418Z,66.70
2022-10-24T04:29:05.418Z,66.70
2022-10-24T04:31:32.555Z,66.70
2022-10-24T04:33:59.328Z,66.60
2022-10-24T04:36:25.972Z,66.60
2022-10-24T04:38:52.658Z,66.70
2022-10-24T04:41:19.331Z,66.80
2022-10-24T04:43:45.888Z,66.80
2022-10-24T04:46:13.684Z,66.80
2022-10-24T04:48:40.269Z,66.80
2022-10-24T04:51:06.938Z,66.90
2022-10-24T04:53:33.527Z,66.60
2022-10-24T04:56:00.131Z,66.70
2022-10-24T04:58:27.026Z,66.80
2022-10-24T05:00:53.646Z,66.70
2022-10-24T05:03:21.134Z,66.60
2022-10-24T05:05:48.157Z,66.70
2022-10-24T05:08:15.110Z,66.70
2022-10-24T05:10:42.271Z,66.70
2022-10-24T05:13:09.584Z,66.70
2022-10-24T05:15:36.565Z,66.80
2022-10-24T05:18:03.301Z,66.60
2022-10-24T05:20:30.216Z,66.80
2022-10-24T05:22:56.833Z,66.80
2022-10-24T05:25:23.699Z,66.70
2022-10-24T05:27:50.310Z,66.70
2022-10-24T05:30:17.202Z,66.60
2022-10-24T05:32:44.290Z,66.60
2022-10-24T05:35:11.120Z,66.60
2022-10-24T05:37:39.065Z,66.70
2022-10-24T05:40:08.381Z,66.40
2022-10-24T05:42:36.273Z,66.40
2022-10-24T05:45:03.172Z,66.50
2022-10-24T05:47:29.942Z,66.50
2022-10-24T05:49:56.712Z,66.60
2022-10-24T05:52:23.364Z,66.50
2022-10-24T05:54:55.847Z,66.50
2022-10-24T05:57:30.089Z,66.60
2022-10-24T05:59:56.728Z,66.70
2022-10-24T06:02:23.397Z,66.50
2022-10-24T06:04:51.021Z,67.00
2022-10-24T06:07:18.694Z,67.00
2022-10-24T06:09:45.476Z,66.90
2022-10-24T06:12:12.536Z,66.80
2022-10-24T06:14:40.533Z,66.70
2022-10-24T06:17:09.155Z,66.80
2022-10-24T06:19:36.801Z,66.80
2022-10-24T06:22:05.016Z,66.80
2022-10-24T06:24:33.694Z,66.70
2022-10-24T06:27:00.573Z,66.50
2022-10-24T06:29:27.213Z,66.70
2022-10-24T06:31:53.949Z,66.50
2022-10-24T06:36:47.207Z,66.60
2022-10-24T06:39:13.796Z,66.50
2022-10-24T06:41:40.433Z,66.50
2022-10-24T06:44:10.876Z,66.60
2022-10-24T06:46:38.016Z,66.50
2022-10-24T06:49:04.735Z,66.40
2022-10-24T06:51:31.591Z,66.50
2022-10-24T06:53:59.466Z,66.50
2022-10-24T06:56:26.331Z,66.60
2022-10-24T06:58:52.945Z,66.60
2022-10-24T07:01:22.295Z,66.70
2022-10-24T07:03:49.363Z,66.70
2022-10-24T07:06:24.706Z,66.70
2022-10-24T07:08:53.187Z,66.70
2022-10-24T07:11:19.886Z,66.60
2022-10-24T07:13:46.640Z,66.60
2022-10-24T07:16:13.375Z,66.80
2022-10-24T07:18:40.596Z,66.80
2022-10-24T07:21:11.270Z,66.70
2022-10-24T07:23:38.044Z,66.80
2022-10-24T07:26:07.535Z,66.50
2022-10-24T07:28:35.397Z,66.60
2022-10-24T07:31:02.302Z,66.50
2022-10-24T07:33:29.692Z,66.40
2022-10-24T07:35:56.667Z,66.50
2022-10-24T07:38:23.791Z,66.50
2022-10-24T07:40:50.496Z,66.60
2022-10-24T07:43:17.844Z,66.50
2022-10-24T07:45:49.010Z,66.50
2022-10-24T07:48:19.491Z,66.40
2022-10-24T07:50:47.298Z,66.50
2022-10-24T07:53:14.803Z,66.60
2022-10-24T07:55:43.027Z,66.40
2022-10-24T07:58:10.735Z,66.60
2022-10-24T08:00:41.184Z,66.40
2022-10-24T08:03:10.776Z,66.40
2022-10-24T08:05:42.739Z,66.50
2022-10-24T08:08:30.863Z,66.30
2022-10-24T08:10:56.561Z,66.40
2022-10-24T08:13:23.437Z,66.30
2022-10-24T08:15:50.053Z,66.20
2022-10-24T08:18:17.653Z,66.10
2022-10-24T08:20:44.295Z,66.10
2022-10-24T08:23:10.863Z,66.10
2022-10-24T08:25:41.900Z,66.10
2022-10-24T08:28:09.267Z,66.00
2022-10-24T08:30:35.977Z,66.00
2022-10-24T08:33:02.625Z,65.90
2022-10-24T08:35:29.223Z,65.90
2022-10-24T08:37:55.847Z,65.90
2022-10-24T08:40:24.513Z,65.90
2022-10-24T08:42:51.138Z,65.90
2022-10-24T08:45:29.397Z,65.80
2022-10-24T08:48:08.416Z,65.80
2022-10-24T08:50:36.701Z,65.80
2022-10-24T08:53:13.333Z,65.80
2022-10-24T08:55:50.315Z,65.90
2022-10-24T08:58:25.690Z,65.80
2022-10-24T09:00:55.189Z,65.80
2022-10-24T09:03:55.523Z,65.90
2022-10-24T09:06:28.168Z,65.90
2022-10-24T09:08:56.795Z,66.00
2022-10-24T09:11:49.724Z,66.00
2022-10-24T09:14:27.239Z,66.40
2022-10-24T09:17:15.491Z,66.30
2022-10-24T09:19:48.803Z,66.30
2022-10-24T09:22:15.708Z,66.40
2022-10-24T09:25:08.178Z,66.40
2022-10-24T09:27:37.392Z,66.40
2022-10-24T09:30:07.386Z,66.00
2022-10-24T09:32:35.891Z,66.10
2022-10-24T09:35:11.879Z,66.10
2022-10-24T09:37:46.257Z,66.10
2022-10-24T09:40:17.189Z,66.00
2022-10-24T09:42:52.862Z,66.40
2022-10-24T09:45:33.666Z,66.40
2022-10-24T09:48:04.458Z,66.60
2022-10-24T09:50:34.184Z,66.50
2022-10-24T09:53:03.181Z,66.60
2022-10-24T09:55:31.216Z,66.60
2022-10-24T09:58:03.893Z,66.50
2022-10-24T10:00:36.097Z,66.50
2022-10-24T10:03:08.674Z,66.30
2022-10-24T10:05:49.391Z,66.20
2022-10-24T10:08:25.265Z,66.20
2022-10-24T10:11:13.476Z,66.00
2022-10-24T10:13:54.051Z,66.10
2022-10-24T10:16:33.809Z,66.10
2022-10-24T10:19:21.697Z,66.10
2022-10-24T10:22:04.396Z,66.10
2022-10-24T10:24:48.593Z,66.10
2022-10-24T10:27:36.280Z,66.10
2022-10-24T10:30:11.859Z,66.20
2022-10-24T10:33:00.888Z,66.00
2022-10-24T10:36:00.164Z,66.00
2022-10-24T10:38:48.403Z,66.00
2022-10-24T10:41:38.925Z,66.10
2022-10-24T10:44:32.456Z,66.10
2022-10-24T10:47:09.238Z,66.10
2022-10-24T10:49:42.201Z,66.20
2022-10-24T10:52:27.301Z,66.30
2022-10-24T10:55:06.009Z,66.20
2022-10-24T10:57:53.579Z,66.20
2022-10-24T11:00:46.173Z,66.00
2022-10-24T11:03:54.426Z,66.00
2022-10-24T11:06:38.299Z,66.00
2022-10-24T11:09:12.870Z,66.00
2022-10-24T11:11:45.258Z,66.00
2022-10-24T11:14:20.915Z,66.00
2022-10-24T11:16:48.841Z,66.10
2022-10-24T11:19:33.910Z,66.20
2022-10-24T11:22:03.034Z,66.30
2022-10-24T11:24:40.604Z,66.60
2022-10-24T11:27:24.153Z,66.20
2022-10-24T11:29:56.792Z,66.30
2022-10-24T11:32:47.764Z,66.40
2022-10-24T11:35:20.773Z,66.60
2022-10-24T11:37:52.639Z,66.60
2022-10-24T11:40:22.064Z,66.70
2022-10-24T11:42:55.957Z,66.60
2022-10-24T11:45:54.105Z,66.40
2022-10-24T11:48:44.930Z,66.40
2022-10-24T11:51:38.732Z,66.40
2022-10-24T11:54:15.333Z,66.30
2022-10-24T11:56:51.696Z,66.30
2022-10-24T11:59:24.156Z,66.40
2022-10-24T12:02:28.792Z,66.30
2022-10-24T12:08:26.523Z,66.50
2022-10-24T12:10:54.465Z,66.50
2022-10-24T12:13:51.549Z,66.60
2022-10-24T12:16:27.555Z,66.70
2022-10-24T12:19:12.836Z,66.70
2022-10-24T12:21:46.410Z,66.70
2022-10-24T12:24:32.931Z,66.70
2022-10-24T12:27:06.951Z,66.80
2022-10-24T12:29:36.234Z,66.90
2022-10-24T12:32:23.292Z,66.80
2022-10-24T12:35:29.029Z,66.80
2022-10-24T12:37:49.120Z,66.70
2022-10-24T12:40:52.896Z,66.50
2022-10-24T12:43:33.980Z,66.40
2022-10-24T12:46:21.753Z,66.10
2022-10-24T12:48:59.326Z,66.10
2022-10-24T12:51:29.798Z,65.90
2022-10-24T12:54:12.983Z,65.80
2022-10-24T12:56:52.181Z,65.70
2022-10-24T12:59:30.087Z,65.70
2022-10-24T13:02:21.226Z,65.70
2022-10-24T13:05:22.206Z,65.70
2022-10-24T13:08:07.624Z,65.80
2022-10-24T13:10:46.957Z,65.70
2022-10-24T13:13:30.717Z,65.90
2022-10-24T13:16:06.943Z,65.90
2022-10-24T13:19:04.126Z,66.00
2022-10-24T13:24:21.493Z,66.10
2022-10-24T13:27:12.867Z,66.10
2022-10-24T13:29:39.801Z,66.00
2022-10-24T13:32:06.397Z,66.10
2022-10-24T13:34:54.398Z,66.00
2022-10-24T13:37:25.818Z,66.00
2022-10-24T13:39:57.850Z,66.00
2022-10-24T13:42:55.393Z,65.90
2022-10-24T13:45:41.181Z,65.90
2022-10-24T13:48:17.231Z,66.00
2022-10-24T13:50:52.103Z,66.00
2022-10-24T13:53:30.275Z,66.00
2022-10-24T13:56:00.311Z,66.00
2022-10-24T13:58:27.190Z,66.00
2022-10-24T14:01:04.801Z,66.00
2022-10-24T14:03:33.624Z,66.00
2022-10-24T14:06:03.356Z,65.90
2022-10-24T14:08:39.025Z,65.90
2022-10-24T14:11:08.711Z,65.90
2022-10-24T14:14:02.637Z,65.80
2022-10-24T14:16:35.051Z,65.80
2022-10-24T14:19:30.971Z,65.90
2022-10-24T14:21:59.420Z,65.90
2022-10-24T14:24:31.000Z,65.90
2022-10-24T14:27:02.271Z,65.90
2022-10-24T14:29:34.009Z,65.90
2022-10-24T14:32:03.269Z,65.80
2022-10-24T14:34:35.979Z,65.80
2022-10-24T14:37:14.981Z,65.80
2022-10-24T14:39:44.781Z,65.80
2022-10-24T14:42:18.336Z,65.80
2022-10-24T14:44:46.836Z,65.70
2022-10-24T14:47:30.425Z,65.70
2022-10-24T14:49:57.121Z,65.70
2022-10-24T14:52:36.762Z,65.60
2022-10-24T14:55:17.818Z,65.60
2022-10-24T14:57:49.774Z,65.60
2022-10-24T15:00:22.489Z,65.60
2022-10-24T15:02:51.248Z,65.50
2022-10-24T15:05:20.727Z,65.50
2022-10-24T15:08:16.791Z,65.40
2022-10-24T15:10:41.488Z,65.40
2022-10-24T15:13:21.580Z,65.40
2022-10-24T15:15:57.669Z,65.40
2022-10-24T15:18:30.616Z,65.40
2022-10-24T15:21:03.922Z,65.40
2022-10-24T15:23:51.036Z,65.40
2022-10-24T15:26:44.537Z,65.40
2022-10-24T15:29:14.453Z,65.50
2022-10-24T15:31:46.502Z,65.60
2022-10-24T15:34:19.158Z,65.50
2022-10-24T15:36:48.287Z,65.60
2022-10-24T15:39:18.202Z,65.70
2022-10-24T15:41:44.893Z,65.70
2022-10-24T15:44:19.647Z,65.80
2022-10-24T15:46:46.787Z,65.80
2022-10-24T15:49:13.441Z,65.50
2022-10-24T15:51:45.930Z,65.70
2022-10-24T15:54:20.239Z,65.90
2022-10-24T15:56:47.236Z,65.90
2022-10-24T15:59:14.395Z,65.90
2022-10-24T16:01:47.288Z,65.90
2022-10-24T16:04:15.170Z,65.90
2022-10-24T16:06:41.841Z,65.90
2022-10-24T16:09:23.313Z,65.80
2022-10-24T16:11:49.991Z,65.90
2022-10-24T16:14:19.191Z,65.80
2022-10-24T16:16:46.608Z,65.90
2022-10-24T16:19:13.763Z,65.80
2022-10-24T16:21:41.777Z,65.80
2022-10-24T16:24:10.415Z,65.80
2022-10-24T16:26:37.578Z,65.90
2022-10-24T16:29:04.984Z,65.80
2022-10-24T16:31:32.057Z,65.90
2022-10-24T16:33:59.260Z,65.80
2022-10-24T16:36:26.264Z,65.90
2022-10-24T16:38:53.282Z,65.90
2022-10-24T16:41:25.964Z,66.00
2022-10-24T16:43:57.400Z,66.00
2022-10-24T16:46:26.042Z,66.00
2022-10-24T16:48:53.653Z,66.00
2022-10-24T16:51:25.533Z,66.10
2022-10-24T16:53:52.119Z,66.20
2022-10-24T16:56:21.698Z,66.10
2022-10-24T16:58:48.320Z,66.30
2022-10-24T17:01:17.275Z,66.30
2022-10-24T17:03:49.212Z,66.40
2022-10-24T17:06:16.021Z,66.40
2022-10-24T17:08:42.684Z,66.40
2022-10-24T17:11:32.109Z,66.50
2022-10-24T17:13:57.992Z,66.50
2022-10-24T17:16:24.878Z,66.60
2022-10-24T17:19:05.622Z,66.60
2022-10-24T17:21:41.361Z,66.70
2022-10-24T17:24:11.648Z,66.70
2022-10-24T17:26:40.324Z,66.80
2022-10-24T17:29:08.404Z,66.80
2022-10-24T17:31:35.495Z,66.90
2022-10-24T17:34:02.332Z,66.90
2022-10-24T17:36:37.364Z,67.00
2022-10-24T17:39:17.603Z,67.10
2022-10-24T17:41:44.845Z,67.20
2022-10-24T17:44:16.580Z,67.10
2022-10-24T17:46:44.268Z,67.40
2022-10-24T17:49:16.597Z,67.30
2022-10-24T17:51:47.347Z,67.40
2022-10-24T17:54:14.848Z,67.40
2022-10-24T17:56:42.767Z,67.60
2022-10-24T17:59:09.944Z,67.70
2022-10-24T18:01:36.836Z,67.70
2022-10-24T18:04:04.295Z,67.70
2022-10-24T18:06:31.248Z,67.70
2022-10-24T18:08:57.988Z,67.60
2022-10-24T18:11:24.744Z,67.70
2022-10-24T18:13:51.402Z,67.70
2022-10-24T18:16:18.969Z,67.60
2022-10-24T18:18:47.063Z,67.70
2022-10-24T18:23:46.558Z,67.80
2022-10-24T18:26:17.809Z,67.50
2022-10-24T18:28:46.448Z,67.70
2022-10-24T18:31:25.636Z,67.60
2022-10-24T18:33:52.944Z,67.80
2022-10-24T18:36:24.316Z,67.60
2022-10-24T18:38:53.894Z,67.80
2022-10-24T18:41:58.546Z,67.70
2022-10-24T18:44:26.805Z,67.70
2022-10-24T18:46:56.000Z,67.70
2022-10-24T18:49:22.929Z,67.90
2022-10-24T18:52:03.649Z,67.90
2022-10-24T18:54:30.674Z,68.00
2022-10-24T18:56:57.565Z,67.80
2022-10-24T18:59:24.309Z,67.70
2022-10-24T19:01:54.221Z,67.80
2022-10-24T19:04:24.175Z,68.00
2022-10-24T19:06:54.932Z,67.90
2022-10-24T19:09:23.976Z,67.90
2022-10-24T19:11:52.437Z,67.90
2022-10-24T19:14:20.559Z,67.80
2022-10-24T19:16:49.433Z,67.80
2022-10-24T19:19:25.051Z,67.80
2022-10-24T19:21:52.208Z,67.90
2022-10-24T19:24:19.285Z,67.70
2022-10-24T19:26:46.328Z,67.60
2022-10-24T19:29:13.084Z,67.70
2022-10-24T19:31:39.909Z,67.60
2022-10-24T19:34:06.483Z,67.50
2022-10-24T19:36:34.082Z,67.50
2022-10-24T19:39:00.844Z,67.60
2022-10-24T19:41:27.820Z,67.50
2022-10-24T19:43:55.106Z,67.50
2022-10-24T19:46:21.917Z,67.40
2022-10-24T19:48:49.454Z,67.50
2022-10-24T19:51:17.507Z,67.60
2022-10-24T19:53:44.606Z,67.40
2022-10-24T19:56:14.572Z,67.60
2022-10-24T19:58:42.133Z,67.40
2022-10-24T20:01:10.511Z,67.40
2022-10-24T20:03:38.258Z,67.40
2022-10-24T20:06:08.412Z,67.30
2022-10-24T20:08:35.481Z,67.50
2022-10-24T20:11:09.422Z,67.30
2022-10-24T20:13:36.121Z,67.40
2022-10-24T20:16:05.833Z,67.00
2022-10-24T20:18:34.639Z,67.50
2022-10-24T20:21:06.308Z,67.30
2022-10-24T20:23:34.064Z,67.30
2022-10-24T20:26:06.573Z,67.20
2022-10-24T20:28:39.068Z,67.30
2022-10-24T20:31:06.875Z,67.30
2022-10-24T20:33:34.027Z,67.30
2022-10-24T20:36:01.923Z,67.30
2022-10-24T20:38:29.048Z,67.40
2022-10-24T20:41:01.212Z,67.40
2022-10-24T20:43:28.493Z,67.40
2022-10-24T20:45:55.121Z,67.30
2022-10-24T20:48:21.747Z,67.40
2022-10-24T20:50:48.435Z,67.40
2022-10-24T20:53:16.141Z,67.40
2022-10-24T20:55:44.773Z,67.50
2022-10-24T20:58:15.755Z,67.50
2022-10-24T21:00:42.392Z,67.40
2022-10-24T21:03:12.020Z,67.40
2022-10-24T21:05:38.793Z,67.30
2022-10-24T21:08:05.633Z,67.20
2022-10-24T21:10:32.416Z,67.30
2022-10-24T21:12:59.227Z,67.40
2022-10-24T21:15:27.026Z,67.30
2022-10-24T21:17:55.705Z,67.40
2022-10-24T21:20:22.299Z,67.40
2022-10-24T21:22:49.004Z,67.50
2022-10-24T21:25:15.721Z,67.20
2022-10-24T21:27:42.280Z,67.40
2022-10-24T21:30:14.739Z,67.50
2022-10-24T21:32:42.015Z,67.70
2022-10-24T21:35:08.824Z,67.60
2022-10-24T21:37:35.563Z,67.60
2022-10-24T21:40:02.178Z,67.60
2022-10-24T21:42:32.952Z,67.50
2022-10-24T21:44:59.588Z,67.70
2022-10-24T21:47:27.381Z,67.50
2022-10-24T21:49:54.009Z,67.70
2022-10-24T21:52:20.624Z,67.70
2022-10-24T21:54:47.241Z,67.50
2022-10-24T21:57:13.795Z,67.60
2022-10-24T21:59:40.349Z,67.60
2022-10-24T22:02:07.017Z,67.70
2022-10-24T22:04:33.769Z,67.50
2022-10-24T22:07:00.441Z,67.50
2022-10-24T22:09:27.079Z,67.70
2022-10-24T22:11:57.783Z,67.90
2022-10-24T22:14:24.890Z,67.80
2022-10-24T22:16:52.106Z,67.80
2022-10-24T22:19:19.156Z,67.90
2022-10-24T22:21:48.586Z,67.90
2022-10-24T22:24:21.322Z,68.10
2022-10-24T22:26:49.004Z,67.80
2022-10-24T22:29:21.546Z,67.80
2022-10-24T22:31:48.733Z,68.00
2022-10-24T22:34:24.202Z,68.00
2022-10-24T22:37:03.081Z,67.90
2022-10-24T22:39:29.876Z,67.90
2022-10-24T22:41:56.825Z,67.90
2022-10-24T22:44:24.016Z,68.20
2022-10-24T22:47:11.762Z,68.00
2022-10-24T22:50:03.734Z,68.00
2022-10-24T22:52:30.466Z,68.30
2022-10-24T22:54:57.602Z,68.10
2022-10-24T22:57:24.987Z,68.20
2022-10-24T22:59:51.824Z,68.30
2022-10-24T23:02:36.354Z,68.20
2022-10-24T23:05:13.192Z,68.10
2022-10-24T23:08:00.093Z,68.30
2022-10-24T23:10:26.714Z,68.30
2022-10-24T23:12:53.612Z,67.70
2022-10-24T23:15:21.495Z,67.90
2022-10-24T23:17:49.396Z,68.10
2022-10-24T23:20:39.123Z,68.00
2022-10-24T23:23:17.223Z,68.10
2022-10-24T23:25:53.681Z,67.80
2022-10-24T23:28:48.224Z,67.90
2022-10-24T23:31:14.976Z,67.70
2022-10-24T23:33:41.945Z,67.80
2022-10-24T23:36:20.642Z,68.00
2022-10-24T23:38:48.171Z,68.10
2022-10-24T23:41:15.125Z,67.50
2022-10-24T23:43:42.043Z,67.70
2022-10-24T23:46:31.251Z,67.80
2022-10-24T23:49:35.305Z,67.70
2022-10-24T23:52:15.262Z,67.30
2022-10-24T23:54:48.409Z,67.50
2022-10-24T23:57:18.452Z,67.70
2022-10-24T23:59:45.343Z,67.50
